Burns Pinion Ridge Reserve, California Weather observations

Data are for 10 minute period ending at time listed.
 Day   Time   Solar   Ave.   Ave.  Ave.  Vector  Max.   Baro.   Total    
  of    of     Rad.   Air    Rel.  Wind   Wind   Wind  Press.  Precip.   
Year   Day            Temp.  Hum.  Speed  Dir.   Gust                    
2015   (PST)  Kw/m2    F      %     mph   deg.    mph    mb.     in.     
-------------------------------------------------------------------------
  31    3:10   0.00   43.1    89    8.4   354    14.9   870.0    0.00 
  31    3:20   0.00   43.2    88    9.9   354    20.2   870.0    0.00 
  31    3:30   0.00   43.4    86   12.5   352    18.6   870.0    0.00 
  31    3:40   0.00   43.3    87   10.8   356    17.2   869.9    0.00 
  31    3:50   0.00   43.2    88   10.5   354    16.6   870.0    0.00 
  31    4:00   0.00   43.0    90   11.2   344    18.0   870.0    0.01 
  31    4:10   0.00   42.8    89   11.5   344    17.5   870.0    0.00 
  31    4:20   0.00   42.9    88   12.8   343    19.4   870.0    0.00 
  31    4:30   0.00   43.0    87   11.8   340    16.6   870.0    0.00 
  31    4:40   0.00   43.2    86   12.8   340    20.8   870.0    0.00 
  31    4:50   0.00   43.4    84   13.7   342    21.0   870.0    0.00 
  31    5:00   0.00   43.4    84   12.3   340    18.6   870.1    0.00 
  31    5:10   0.00   43.3    85    8.9   350    14.3   870.1    0.00 
  31    5:20   0.00   43.3    85    9.8   344    17.8   870.1    0.00 
  31    5:30   0.00   43.4    84   12.7   342    22.4   870.1    0.00 
  31    5:40   0.00   43.6    82   14.5   342    21.4   870.2    0.00 
  31    5:50   0.00   43.5    82   13.4   341    20.2   870.3    0.00 
  31    6:00   0.00   43.4    82   13.3   342    19.1   870.3    0.00 
  31    6:10   0.00   43.3    83   11.3   344    18.9   870.3    0.00 
  31    6:20   0.00   43.2    84   14.1   341    23.2   870.4    0.00 
  31    6:30   0.00   43.2    84   12.6   345    23.3   870.5    0.00 
  31    6:40   0.00   43.1    84   13.1   355    24.3   870.6    0.00 
  31    6:50   0.00   43.1    84   12.5   358    20.7   870.7    0.00 
  31    7:00   0.00   43.0    85   10.4   352    19.7   870.8    0.00 
  31    7:10   0.00   43.0    85   13.9   351    23.2   870.8    0.00 
  31    7:20   0.02   43.1    83   14.2   352    20.2   870.9    0.00 
  31    7:30   0.05   43.2    83   15.6   343    24.3   870.9    0.00 
  31    7:40   0.05   43.3    82   13.9   353    21.7   871.1    0.00 
  31    7:50   0.04   43.5    82   15.1   356    23.2   871.2    0.00 
  31    8:00   0.03   43.4    84   13.2   359    18.5   871.4    0.00 
  31    8:10   0.03   43.2    84   11.1   346    19.1   871.5    0.00 
  31    8:20   0.06   43.4    83   14.6   337    20.5   871.6    0.00 
  31    8:30   0.07   43.3    84   14.9   341    23.9   871.7    0.00 
  31    8:40   0.09   43.5    83   15.9   337    23.3   871.9    0.00 
  31    8:50   0.11   43.9    82   16.6   339    22.9   872.0    0.00 
  31    9:00   0.13   44.3    81   15.5   342    24.3   872.0    0.00 
  31    9:10   0.11   44.0    82   17.5   335    25.2   872.1    0.00 
  31    9:20   0.13   43.9    81   19.4   335    27.5   872.1    0.00 
  31    9:30   0.09   43.9    82   19.1   338    27.5   872.3    0.00 
  31    9:40   0.07   43.8    82   16.5   338    23.5   872.4    0.00 
  31    9:50   0.10   44.1    80   15.9   340    24.0   872.5    0.00 
  31   10:00   0.14   44.6    79   14.8   342    22.6   872.6    0.00 
  31   10:10   0.21   45.3    78   15.5   341    24.1   872.5    0.00 
  31   10:20   0.18   45.4    77   17.7   338    27.0   872.5    0.00 
  31   10:30   0.43   46.1    76   16.4   340    25.9   872.5    0.00 
  31   10:40   0.24   46.3    76   18.0   337    27.6   872.6    0.00 
  31   10:50   0.21   46.0    76   16.0   344    24.4   872.7    0.00 
  31   11:00   0.30   46.9    75   14.2   351    23.6   872.8    0.00 
  31   11:10   0.47   47.2    74   17.5   339    25.6   872.7    0.00 
  31   11:20   0.35   47.4    72   18.6   339    27.3   872.6    0.00 
  31   11:30   0.24   46.8    73   18.1   343    28.5   872.5    0.00 
  31   11:40   0.30   46.8    73   17.9   334    28.1   872.4    0.00 
  31   11:50   0.20   46.7    74   18.1   337    27.8   872.3    0.00 
  31   12:00   0.21   46.8    73   15.9   344    25.6   872.3    0.00 
  31   12:10   0.30   47.5    72   15.6   343    28.2   872.2    0.00 
  31   12:20   0.28   47.7    72   14.8   345    21.0   872.2    0.00 
  31   12:30   0.29   47.9    70   18.4   359    28.7   872.2    0.00 
  31   12:40   0.17   47.1    72   17.0   356    25.7   872.2    0.00 
  31   12:50   0.28   47.5    73   14.8   347    22.7   872.1    0.00 
  31   13:00   0.15   47.1    74   15.3   343    25.1   872.1    0.00 
  31   13:10   0.09   46.5    76   14.5   345    23.5   872.0    0.00 
  31   13:20   0.09   46.3    76   13.2   348    20.8   872.0    0.00 
  31   13:30   0.09   46.3    76   14.6   343    22.4   871.9    0.00 
  31   13:40   0.20   46.5    76   14.0   342    21.8   872.0    0.00 
  31   13:50   0.30   47.7    74   14.2   342    23.0   871.9    0.00 
  31   14:00   0.23   48.0    73   15.4   356    24.7   872.0    0.00 
  31   14:10   0.30   48.7    72   14.6   346    25.6   872.0    0.00 
  31   14:20   0.36   48.6    71   14.9   337    21.6   871.9    0.00 
  31   14:30   0.46   50.2    67   17.7   351    28.7   871.9    0.00 
  31   14:40   0.54   50.3    66   18.8   353    25.7   871.9    0.00 
  31   14:50   0.34   49.9    67   17.4   354    25.8   872.0    0.00 
  31   15:00   0.32   49.7    68   17.8   358    27.1   872.0    0.00 
  31   15:10   0.37   50.0    67   18.5   357    27.0   871.9    0.00 
  31   15:20   0.35   50.5    66   16.7   354    25.8   871.9    0.00 
  31   15:30   0.32   50.8    66   17.2   355    25.8   872.0    0.00 
  31   15:40   0.29   50.9    65   16.5   353    24.9   872.0    0.00 
  31   15:50   0.21   50.8    65   17.6   355    25.1   872.1    0.00 
  31   16:00   0.08   49.3    68   16.6   352    28.4   872.3    0.00 
  31   16:10   0.15   49.0    68   13.6   350    21.5   872.4    0.00 
  31   16:20   0.20   50.0    66   15.0   350    24.3   872.5    0.00 
  31   16:30   0.14   49.8    66   16.3   346    25.6   872.6    0.00 
  31   16:40   0.10   49.3    67   18.7   339    27.7   872.7    0.00 
  31   16:50   0.06   49.0    67   18.5   340    26.3   872.8    0.00 
  31   17:00   0.03   48.5    67   18.4   340    27.1   872.8    0.00 
  31   17:10   0.01   48.4    67   17.4   340    27.6   873.0    0.00 
  31   17:20   0.01   48.3    66   17.9   338    26.5   872.9    0.00 
  31   17:30   0.00   48.1    67   15.6   342    22.4   873.0    0.00 
  31   17:40   0.00   47.9    67   17.1   338    24.4   873.1    0.00 
  31   17:50   0.00   47.6    67   15.9   339    24.5   873.1    0.00 
  31   18:00   0.00   47.3    68   15.2   340    24.3   873.3    0.00 
  31   18:10   0.00   47.3    67   14.8   342    21.9   873.4    0.00 
  31   18:20   0.00   47.1    67   15.0   342    24.5   873.6    0.00 
  31   18:30   0.00   47.4    66   17.2   341    23.7   873.7    0.00 
  31   18:40   0.00   47.4    66   14.9   343    23.3   873.9    0.00 
  31   18:50   0.00   47.1    66   14.0   341    21.5   874.0    0.00 
  31   19:00   0.00   47.2    66   14.9   343    21.4   874.1    0.00 
  31   19:10   0.00   47.3    65   15.4   342    21.5   874.3    0.00 
  31   19:20   0.00   47.4    64   14.3   344    20.0   874.5    0.00 
  31   19:30   0.00   47.5    64   15.7   342    23.4   874.6    0.00 
  31   19:40   0.00   47.5    64   15.5   342    22.9   874.7    0.00 
  31   19:50   0.00   47.8    63   15.1   344    22.1   874.8    0.00 
  31   20:00   0.00   47.7    63   15.8   340    21.4   874.9    0.00 
  31   20:10   0.00   47.3    64   14.4   339    19.0   874.9    0.00 
  31   20:20   0.00   47.3    63   12.5   338    18.4   874.9    0.00 
  31   20:30   0.00   46.9    64   10.5   343    15.7   875.0    0.00 
  31   20:40   0.00   47.3    64    9.5   350    14.6   875.2    0.00 
  31   20:50   0.00   47.3    63    9.8   345    15.0   875.4    0.00 
  31   21:00   0.00   47.7    63    8.8   355    13.2   875.5    0.00 
  31   21:10   0.00   48.1    62   10.7   344    16.7   875.6    0.00 
  31   21:20   0.00   48.3    61   10.8   349    16.7   875.7    0.00 
  31   21:30   0.00   48.4    61   11.6   344    16.2   875.8    0.00 
  31   21:40   0.00   48.3    61   12.6   345    19.4   875.8    0.00 
  31   21:50   0.00   48.3    61   13.1   341    17.2   875.8    0.00 
  31   22:00   0.00   48.5    60   13.4   340    18.5   875.8    0.00 
  31   22:10   0.00   48.7    59   14.0   341    20.9   875.8    0.00 
  31   22:20   0.00   49.2    58   14.8   342    21.5   875.9    0.00 
  31   22:30   0.00   49.1    59   14.0   344    22.6   876.1    0.00 
  31   22:40   0.00   49.2    58   13.0   342    20.5   876.2    0.00 
  31   22:50   0.00   49.3    58   14.1   342    20.4   876.2    0.00 
  31   23:00   0.00   49.4    57   14.6   341    19.9   876.2    0.00 
  31   23:10   0.00   48.9    58   10.8   343    17.6   876.2    0.00 
  31   23:20   0.00   48.3    59   10.8   341    16.7   876.1    0.00 
  31   23:30   0.00   48.3    59   10.9   339    17.0   876.1    0.00 
  31   23:40   0.00   48.3    59   11.7   344    17.8   876.2    0.00 
  31   23:50   0.00   48.6    58   11.7   343    16.7   876.2    0.00 
  32    0:00   0.00   49.1    56   12.4   345    17.3   876.2    0.00 
  32    0:10   0.00   49.5    55   12.9   350    18.6   876.3    0.00 
  32    0:20   0.00   49.7    55   13.6   347    20.8   876.3    0.00 
  32    0:30   0.00   49.7    55   13.8   345    19.3   876.3    0.00 
  32    0:40   0.00   49.5    55   13.7   350    20.3   876.3    0.00 
  32    0:50   0.00   49.4    56   13.2   348    19.2   876.3    0.00 
  32    1:00   0.00   49.3    56   13.2   349    21.6   876.3    0.00 
  32    1:10   0.00   49.1    56   12.6   347    19.8   876.4    0.00 
  32    1:20   0.00   48.8    57   12.3   347    19.1   876.5    0.00 
  32    1:30   0.00   48.9    57   13.2   340    18.3   876.5    0.00 
  32    1:40   0.00   48.7    57   13.6   344    19.0   876.5    0.00 
  32    1:50   0.00   48.7    55   14.3   342    22.6   876.5    0.00 
  32    2:00   0.00   49.2    53   16.2   341    23.4   876.4    0.00 
  32    2:10   0.00   49.2    52   16.1   341    23.0   876.5    0.00 
  32    2:20   0.00   49.0    52   16.3   341    22.6   876.5    0.00 
  32    2:30   0.00   48.7    52   15.7   341    20.9   876.6    0.00 
  32    2:40   0.00   48.6    52   14.8   342    21.3   876.7    0.00 
  32    2:50   0.00   48.3    53   13.4   340    18.3   876.7    0.00 
  32    3:00   0.00   48.1    53   13.6   336    19.4   876.7    0.00 

Return to Burns Pinion Ridge Reserve graphs page.


Western Regional Climate Center,wrcc@dri.edu